Time;durP1;ratioP1;P1;durP2;ratioP2;P2;SDS_P1;SDS_P2;PMS_P1;PMS_P2;Temp;Humidity;BMP_temperature;BMP_pressure;BME280_temperature;BME280_humidity;BME280_pressure;Samples;Min_cycle;Max_cycle;Signal;HPM_P1;HPM_P2
2022/01/23 00:00:05;;;;;;;47.77;19.13;;;;;;;;;;5038709;28;20196;-80
2022/01/23 00:02:35;;;;;;;43.83;18.00;;;;;;;;;;5031671;28;20452;-77
2022/01/23 00:05:06;;;;;;;44.50;18.23;;;;;;;;;;5047778;28;20018;-77
2022/01/23 00:07:36;;;;;;;42.67;18.77;;;;;;;;;;5034859;28;20025;-79
2022/01/23 00:10:03;;;;;;;50.10;19.03;;;;;;;;;;5029102;28;20017;-79
2022/01/23 00:12:33;;;;;;;45.43;19.10;;;;;;;;;;5033272;28;20029;-79
2022/01/23 00:17:44;;;;;;;45.60;19.43;;;;;;;;;;5032195;28;20041;-79
2022/01/23 00:20:12;;;;;;;50.93;19.80;;;;;;;;;;5034739;28;20026;-80
2022/01/23 00:22:43;;;;;;;51.63;20.77;;;;;;;;;;5032836;28;20358;-80
2022/01/23 00:30:42;;;;;;;51.20;20.20;;;;;;;;;;5030181;28;20480;-77
2022/01/23 00:33:09;;;;;;;42.90;19.97;;;;;;;;;;5037015;28;20022;-78
2022/01/23 00:35:38;;;;;;;57.03;22.00;;;;;;;;;;5037522;28;20041;-79
2022/01/23 00:38:08;;;;;;;42.67;19.03;;;;;;;;;;5040215;28;20017;-78
2022/01/23 00:40:35;;;;;;;45.53;19.23;;;;;;;;;;5040939;28;20037;-79
2022/01/23 00:43:08;;;;;;;48.27;20.53;;;;;;;;;;5039475;28;20168;-79
2022/01/23 00:45:41;;;;;;;43.83;19.60;;;;;;;;;;5050704;28;20446;-79
2022/01/23 00:48:08;;;;;;;42.83;18.37;;;;;;;;;;5033211;28;20036;-78
2022/01/23 00:50:44;;;;;;;40.83;19.23;;;;;;;;;;5038167;28;20025;-79
2022/01/23 00:53:16;;;;;;;43.20;18.60;;;;;;;;;;5038222;28;20033;-79
2022/01/23 00:55:45;;;;;;;41.30;18.25;;;;;;;;;;5037624;28;20049;-76
2022/01/23 00:58:14;;;;;;;40.13;20.00;;;;;;;;;;5049474;28;20133;-79
2022/01/23 01:00:41;;;;;;;36.40;17.50;;;;;;;;;;5031942;28;20113;-79
2022/01/23 01:03:07;;;;;;;47.37;19.37;;;;;;;;;;5031673;28;20605;-78
2022/01/23 01:05:35;;;;;;;38.37;17.37;;;;;;;;;;5040572;28;20061;-78
2022/01/23 01:08:01;;;;;;;52.50;20.30;;;;;;;;;;5040490;28;20446;-78
2022/01/23 01:10:44;;;;;;;39.10;19.03;;;;;;;;;;5032091;28;20067;-79
2022/01/23 01:13:12;;;;;;;43.47;19.00;;;;;;;;;;5040581;28;20034;-77
2022/01/23 01:32:14;;;;;;;48.73;21.07;;;;;;;;;;5031332;28;20094;-78
2022/01/23 01:34:47;;;;;;;51.47;22.67;;;;;;;;;;5027555;28;20082;-79
2022/01/23 01:37:15;;;;;;;;;;;;;;;;;;5042061;28;20129;-79
2022/01/23 01:39:41;;;;;;;48.13;17.87;;;;;;;;;;5064625;28;19913;-79
2022/01/23 01:42:08;;;;;;;48.40;17.70;;;;;;;;;;5040521;28;20043;-79
2022/01/23 01:44:34;;;;;;;45.63;20.83;;;;;;;;;;5037262;28;20442;-79
2022/01/23 01:47:00;;;;;;;40.70;18.63;;;;;;;;;;5039302;28;20112;-79
2022/01/23 01:49:31;;;;;;;47.60;21.43;;;;;;;;;;5034776;28;20036;-80
2022/01/23 01:51:58;;;;;;;43.00;19.23;;;;;;;;;;5038290;28;20021;-78
2022/01/23 01:54:26;;;;;;;46.30;19.97;;;;;;;;;;5037381;28;20033;-77
2022/01/23 01:57:04;;;;;;;49.57;20.63;;;;;;;;;;5036693;28;20032;-78
2022/01/23 02:10:25;;;;;;;42.93;19.53;;;;;;;;;;5031229;28;20432;-79
2022/01/23 02:13:05;;;;;;;40.10;17.50;;;;;;;;;;5031671;28;20030;-78
2022/01/23 02:51:45;;;;;;;55.73;21.93;;;;;;;;;;5027620;28;20564;-80
2022/01/23 02:56:45;;;;;;;54.83;20.47;;;;;;;;;;5034765;28;20037;-79
2022/01/23 03:04:35;;;;;;;54.87;21.20;;;;;;;;;;5030654;28;20038;-80
2022/01/23 03:09:57;;;;;;;48.00;19.70;;;;;;;;;;5026213;28;20482;-79
2022/01/23 03:15:13;;;;;;;54.03;21.50;;;;;;;;;;5027336;28;20029;-79
2022/01/23 03:28:38;;;;;;;43.23;17.97;;;;;;;;;;5026742;28;20030;-79
2022/01/23 03:33:32;;;;;;;39.60;18.73;;;;;;;;;;5032815;28;20038;-79
2022/01/23 03:35:58;;;;;;;40.83;18.97;;;;;;;;;;5036238;28;20059;-78
2022/01/23 03:38:24;;;;;;;41.53;17.67;;;;;;;;;;5036324;28;20040;-78
2022/01/23 03:40:53;;;;;;;40.10;19.37;;;;;;;;;;5026370;28;20038;-79
2022/01/23 03:43:26;;;;;;;40.63;18.43;;;;;;;;;;5033686;28;20366;-78
2022/01/23 03:51:06;;;;;;;47.93;17.83;;;;;;;;;;5030626;28;20095;-79
2022/01/23 03:53:32;;;;;;;47.60;20.43;;;;;;;;;;5038488;28;20396;-77
2022/01/23 03:56:00;;;;;;;44.20;19.17;;;;;;;;;;5035252;28;20075;-79
2022/01/23 03:58:26;;;;;;;47.80;17.73;;;;;;;;;;5030129;28;20040;-78
2022/01/23 04:00:52;;;;;;;40.73;18.30;;;;;;;;;;5040712;28;20030;-79
2022/01/23 04:03:19;;;;;;;48.80;17.80;;;;;;;;;;5033788;28;20245;-79
2022/01/23 04:05:45;;;;;;;45.00;17.53;;;;;;;;;;5027949;28;20065;-79
2022/01/23 04:08:12;;;;;;;41.00;18.80;;;;;;;;;;5036572;28;20091;-79
2022/01/23 04:10:38;;;;;;;43.10;17.83;;;;;;;;;;5033963;28;20063;-79
2022/01/23 04:13:15;;;;;;;39.13;17.83;;;;;;;;;;5036527;28;21619;-80
2022/01/23 04:31:54;;;;;;;41.40;17.50;;;;;;;;;;5033325;28;20358;-79
2022/01/23 04:34:58;;;;;;;38.80;16.77;;;;;;;;;;5039899;28;20092;-79
2022/01/23 04:45:33;;;;;;;45.00;17.63;;;;;;;;;;5034677;28;20167;-79
2022/01/23 05:04:32;;;;;;;42.00;19.07;;;;;;;;;;5030492;28;20092;-79
2022/01/23 05:09:27;;;;;;;38.93;18.57;;;;;;;;;;5027544;28;20038;-78
2022/01/23 05:11:58;;;;;;;37.87;18.10;;;;;;;;;;5038483;28;20026;-80
2022/01/23 05:14:31;;;;;;;34.67;17.00;;;;;;;;;;5040459;28;20017;-78
2022/01/23 05:16:58;;;;;;;42.57;18.27;;;;;;;;;;5033638;28;20457;-79
2022/01/23 05:19:24;;;;;;;41.20;17.67;;;;;;;;;;5033166;28;20066;-78
2022/01/23 05:22:09;;;;;;;42.20;18.43;;;;;;;;;;5037564;28;20025;-77
2022/01/23 05:24:40;;;;;;;43.43;18.53;;;;;;;;;;5031896;28;20026;-79
2022/01/23 05:27:08;;;;;;;41.97;18.50;;;;;;;;;;5038052;28;20033;-79
2022/01/23 05:29:34;;;;;;;46.73;18.23;;;;;;;;;;5059427;28;20053;-80
2022/01/23 05:32:00;;;;;;;40.67;19.13;;;;;;;;;;5036267;28;20030;-77
2022/01/23 05:34:27;;;;;;;55.10;19.97;;;;;;;;;;5038322;28;20107;-79
2022/01/23 05:36:53;;;;;;;49.67;19.37;;;;;;;;;;5038904;28;20120;-79
2022/01/23 05:39:22;;;;;;;52.07;21.70;;;;;;;;;;5029835;28;20098;-80
2022/01/23 05:41:52;;;;;;;54.23;20.97;;;;;;;;;;5031647;28;20025;-80
2022/01/23 05:44:20;;;;;;;45.30;18.93;;;;;;;;;;5041320;28;20506;-79
2022/01/23 05:46:46;;;;;;;48.63;20.80;;;;;;;;;;5038741;28;20108;-79
2022/01/23 05:49:12;;;;;;;45.87;18.40;;;;;;;;;;5036623;28;20041;-78
2022/01/23 05:51:38;;;;;;;46.33;22.07;;;;;;;;;;5030317;28;20029;-78
2022/01/23 05:54:04;;;;;;;45.17;18.97;;;;;;;;;;5037201;28;20336;-79
2022/01/23 05:56:30;;;;;;;46.37;20.73;;;;;;;;;;5037767;28;20454;-79
2022/01/23 05:58:59;;;;;;;47.97;18.77;;;;;;;;;;5029050;28;20381;-79
2022/01/23 06:01:25;;;;;;;49.17;20.17;;;;;;;;;;5038558;28;20033;-80
2022/01/23 06:03:53;;;;;;;42.60;20.63;;;;;;;;;;5038728;28;20907;-78
2022/01/23 06:06:21;;;;;;;44.43;18.97;;;;;;;;;;5038433;28;20084;-78
2022/01/23 06:08:49;;;;;;;47.97;19.53;;;;;;;;;;5039385;28;20434;-78
2022/01/23 06:11:16;;;;;;;44.60;17.93;;;;;;;;;;5039275;28;20029;-80
2022/01/23 06:13:42;;;;;;;41.60;20.43;;;;;;;;;;5039816;28;20044;-79
2022/01/23 06:16:08;;;;;;;50.00;19.43;;;;;;;;;;5034619;28;20033;-79
2022/01/23 06:18:38;;;;;;;41.20;19.33;;;;;;;;;;5035958;28;20079;-78
2022/01/23 06:21:07;;;;;;;47.80;19.67;;;;;;;;;;5029839;28;20036;-78
2022/01/23 06:23:33;;;;;;;51.17;20.83;;;;;;;;;;5037654;28;20120;-78
2022/01/23 06:26:01;;;;;;;36.70;18.70;;;;;;;;;;5034306;28;20026;-79
2022/01/23 06:28:44;;;;;;;47.17;18.13;;;;;;;;;;5035815;28;20413;-80
2022/01/23 06:31:10;;;;;;;36.00;16.50;;;;;;;;;;5038350;28;20028;-79
2022/01/23 06:33:36;;;;;;;40.43;17.07;;;;;;;;;;5034967;28;20106;-79
2022/01/23 06:36:03;;;;;;;41.53;18.07;;;;;;;;;;5036217;28;20033;-79
2022/01/23 06:38:29;;;;;;;37.43;17.23;;;;;;;;;;5037213;28;20116;-80
2022/01/23 06:40:55;;;;;;;40.30;17.03;;;;;;;;;;5039920;28;20040;-80
2022/01/23 06:43:21;;;;;;;35.27;16.30;;;;;;;;;;5026252;28;20026;-77
2022/01/23 06:45:47;;;;;;;41.57;17.70;;;;;;;;;;5034422;28;20030;-79
2022/01/23 06:48:13;;;;;;;36.37;17.50;;;;;;;;;;5036360;28;20041;-79
2022/01/23 06:50:39;;;;;;;33.63;17.13;;;;;;;;;;5029400;28;20835;-78
2022/01/23 06:53:05;;;;;;;33.87;17.13;;;;;;;;;;5047654;28;20028;-79
2022/01/23 06:55:31;;;;;;;38.70;18.60;;;;;;;;;;5035375;28;20096;-80
2022/01/23 06:57:57;;;;;;;29.53;16.03;;;;;;;;;;5035271;28;20363;-79
2022/01/23 07:00:23;;;;;;;35.77;16.57;;;;;;;;;;5035059;28;20097;-80
2022/01/23 07:02:49;;;;;;;37.73;16.83;;;;;;;;;;5031813;28;20021;-76
2022/01/23 07:05:15;;;;;;;34.47;17.40;;;;;;;;;;5039843;28;20063;-80
2022/01/23 07:07:43;;;;;;;36.13;15.67;;;;;;;;;;5039406;28;20034;-80
2022/01/23 07:10:11;;;;;;;36.27;17.67;;;;;;;;;;5039353;28;20086;-79
2022/01/23 07:12:37;;;;;;;33.17;16.47;;;;;;;;;;5027451;28;20068;-78
2022/01/23 07:15:03;;;;;;;33.93;15.30;;;;;;;;;;5039348;28;20473;-78
2022/01/23 07:17:29;;;;;;;35.07;16.60;;;;;;;;;;5045374;28;20056;-78
2022/01/23 07:19:55;;;;;;;38.53;17.37;;;;;;;;;;5038506;28;20116;-78
2022/01/23 07:22:21;;;;;;;30.83;15.37;;;;;;;;;;5029382;28;20041;-79
2022/01/23 07:24:47;;;;;;;32.30;15.60;;;;;;;;;;5035253;28;20053;-77
2022/01/23 07:27:18;;;;;;;31.63;16.47;;;;;;;;;;5037650;28;20060;-79
2022/01/23 07:29:46;;;;;;;37.93;17.50;;;;;;;;;;5035318;28;20445;-78
2022/01/23 07:32:12;;;;;;;34.47;15.63;;;;;;;;;;5037677;28;20033;-78
2022/01/23 07:34:38;;;;;;;30.17;16.27;;;;;;;;;;5035790;28;20087;-78
2022/01/23 07:37:04;;;;;;;29.67;15.20;;;;;;;;;;5027080;28;20099;-80
2022/01/23 07:39:30;;;;;;;28.07;15.27;;;;;;;;;;5026617;28;20034;-80
2022/01/23 07:41:56;;;;;;;29.97;15.17;;;;;;;;;;5035263;28;20030;-80
2022/01/23 07:44:22;;;;;;;26.93;15.60;;;;;;;;;;5025873;28;20099;-80
2022/01/23 07:46:51;;;;;;;28.93;14.80;;;;;;;;;;5047710;28;20033;-79
2022/01/23 07:49:18;;;;;;;30.67;15.73;;;;;;;;;;5034808;28;20056;-77
2022/01/23 07:51:46;;;;;;;27.50;14.67;;;;;;;;;;5038066;28;20071;-79
2022/01/23 07:54:11;;;;;;;29.57;16.50;;;;;;;;;;5032753;28;20032;-78
2022/01/23 07:56:39;;;;;;;31.20;17.77;;;;;;;;;;5042338;28;20094;-80
2022/01/23 07:59:07;;;;;;;27.80;15.07;;;;;;;;;;5039207;28;21617;-79
2022/01/23 08:01:39;;;;;;;32.37;16.10;;;;;;;;;;5065949;28;20120;-80
2022/01/23 08:04:08;;;;;;;33.63;17.50;;;;;;;;;;5041671;28;20021;-79
2022/01/23 08:06:41;;;;;;;28.40;13.80;;;;;;;;;;5035379;28;20060;-79
2022/01/23 08:09:08;;;;;;;26.90;13.30;;;;;;;;;;5027606;28;20484;-79
2022/01/23 08:11:34;;;;;;;32.90;16.50;;;;;;;;;;5040792;28;20033;-77
2022/01/23 08:14:00;;;;;;;31.33;16.27;;;;;;;;;;5038734;28;20099;-78
2022/01/23 08:16:26;;;;;;;34.07;16.67;;;;;;;;;;5038705;28;20124;-79
2022/01/23 08:18:55;;;;;;;40.50;15.80;;;;;;;;;;5032698;28;20041;-79
2022/01/23 08:21:21;;;;;;;29.27;14.87;;;;;;;;;;5041666;28;20064;-80
2022/01/23 08:23:52;;;;;;;38.67;18.27;;;;;;;;;;5047367;28;20029;-79
2022/01/23 08:26:18;;;;;;;38.67;15.83;;;;;;;;;;5029036;28;20058;-78
2022/01/23 08:28:44;;;;;;;26.13;14.60;;;;;;;;;;5035523;28;20095;-78
2022/01/23 08:31:10;;;;;;;39.10;17.97;;;;;;;;;;5037660;28;20045;-80
2022/01/23 08:33:39;;;;;;;33.60;14.73;;;;;;;;;;5041510;28;20041;-80
2022/01/23 08:36:05;;;;;;;31.70;16.00;;;;;;;;;;5030638;28;20030;-79
2022/01/23 08:38:34;;;;;;;34.17;17.43;;;;;;;;;;5032052;28;20052;-79
2022/01/23 08:43:38;;;;;;;32.87;15.80;;;;;;;;;;5031342;28;20401;-79
2022/01/23 08:46:09;;;;;;;36.90;16.97;;;;;;;;;;5036167;28;20060;-79
2022/01/23 08:48:35;;;;;;;30.43;14.67;;;;;;;;;;5035447;28;20034;-79
2022/01/23 08:51:02;;;;;;;33.73;17.83;;;;;;;;;;5047125;28;21484;-78
2022/01/23 08:53:31;;;;;;;34.23;17.03;;;;;;;;;;5036761;28;20112;-79
2022/01/23 08:55:57;;;;;;;30.07;15.47;;;;;;;;;;5046461;28;20026;-77
2022/01/23 08:58:23;;;;;;;34.20;16.10;;;;;;;;;;5038999;28;20049;-79
2022/01/23 09:00:49;;;;;;;26.57;14.70;;;;;;;;;;5039420;28;20030;-79
2022/01/23 09:03:15;;;;;;;33.23;16.00;;;;;;;;;;5027636;28;20430;-78
2022/01/23 09:05:41;;;;;;;32.70;16.97;;;;;;;;;;5036869;28;20049;-80
2022/01/23 09:08:07;;;;;;;32.50;16.87;;;;;;;;;;5031835;28;20061;-80
2022/01/23 09:10:40;;;;;;;39.20;18.63;;;;;;;;;;5028998;28;20429;-77
2022/01/23 09:15:35;;;;;;;31.40;15.03;;;;;;;;;;5029368;28;20113;-79
2022/01/23 09:18:01;;;;;;;33.13;16.00;;;;;;;;;;5036798;28;20120;-78
2022/01/23 09:20:28;;;;;;;30.47;16.63;;;;;;;;;;5033210;28;20021;-79
2022/01/23 09:22:54;;;;;;;29.00;15.60;;;;;;;;;;5038290;28;20037;-78
2022/01/23 09:25:20;;;;;;;35.37;17.23;;;;;;;;;;5028365;28;20153;-79
2022/01/23 09:27:48;;;;;;;33.70;16.60;;;;;;;;;;5038516;28;20030;-78
2022/01/23 09:30:19;;;;;;;33.30;16.37;;;;;;;;;;5035784;28;20030;-77
2022/01/23 09:32:48;;;;;;;34.07;16.07;;;;;;;;;;5036272;28;20037;-80
2022/01/23 09:35:17;;;;;;;29.73;14.97;;;;;;;;;;5027689;28;20390;-79
2022/01/23 09:37:44;;;;;;;35.83;15.87;;;;;;;;;;5030200;28;20033;-77
2022/01/23 09:40:11;;;;;;;28.47;13.37;;;;;;;;;;5037726;28;20365;-79
2022/01/23 09:42:48;;;;;;;32.37;14.63;;;;;;;;;;5039955;28;20842;-76
2022/01/23 09:45:14;;;;;;;26.83;13.93;;;;;;;;;;5040592;28;20107;-77
2022/01/23 09:47:43;;;;;;;27.53;14.70;;;;;;;;;;5027591;28;20026;-79
2022/01/23 09:50:13;;;;;;;30.37;14.73;;;;;;;;;;5026966;28;20454;-79
2022/01/23 09:52:44;;;;;;;27.13;14.53;;;;;;;;;;5037836;28;20132;-78
2022/01/23 09:55:12;;;;;;;30.03;14.73;;;;;;;;;;5040795;28;20041;-79
2022/01/23 09:57:39;;;;;;;27.53;15.33;;;;;;;;;;5039622;28;20370;-79
2022/01/23 10:00:07;;;;;;;27.10;14.03;;;;;;;;;;5037297;28;20037;-78
2022/01/23 10:02:33;;;;;;;37.90;16.10;;;;;;;;;;5038700;28;20034;-79
2022/01/23 10:04:59;;;;;;;24.70;14.30;;;;;;;;;;5032858;28;20025;-78
2022/01/23 10:07:28;;;;;;;32.00;14.80;;;;;;;;;;5030304;28;20624;-78
2022/01/23 10:10:07;;;;;;;28.57;14.53;;;;;;;;;;5027862;28;20033;-79
2022/01/23 10:12:38;;;;;;;27.73;13.83;;;;;;;;;;5037984;28;20105;-77
2022/01/23 10:15:04;;;;;;;26.80;13.87;;;;;;;;;;5037401;28;20033;-80
2022/01/23 10:17:34;;;;;;;24.83;12.93;;;;;;;;;;5028344;28;20034;-78
2022/01/23 10:20:02;;;;;;;30.70;14.57;;;;;;;;;;5039600;28;20044;-78
2022/01/23 10:22:29;;;;;;;30.57;15.23;;;;;;;;;;5042793;28;20049;-79
2022/01/23 10:25:04;;;;;;;25.80;14.10;;;;;;;;;;5029236;28;20029;-77
2022/01/23 10:27:52;;;;;;;28.13;15.20;;;;;;;;;;5031498;28;20033;-78
2022/01/23 10:30:23;;;;;;;25.33;13.40;;;;;;;;;;5060196;28;20051;-79
2022/01/23 10:33:25;;;;;;;28.00;15.17;;;;;;;;;;5035725;28;20527;-79
2022/01/23 10:35:57;;;;;;;24.00;13.40;;;;;;;;;;5002382;28;20065;-77
2022/01/23 10:38:24;;;;;;;25.42;13.02;;;;;;;;;;5024075;28;20049;-79
2022/01/23 10:40:56;;;;;;;23.10;13.83;;;;;;;;;;5036003;28;20033;-79
2022/01/23 10:48:51;;;;;;;26.83;12.43;;;;;;;;;;5029560;28;20045;-77
2022/01/23 10:51:17;;;;;;;25.47;14.03;;;;;;;;;;5035946;28;20529;-78
2022/01/23 10:54:24;;;;;;;23.57;13.63;;;;;;;;;;5035303;28;20116;-77
2022/01/23 10:56:49;;;;;;;27.60;12.80;;;;;;;;;;4995933;28;20058;-78
2022/01/23 10:59:19;;;;;;;25.73;13.00;;;;;;;;;;5001098;28;21097;-80
2022/01/23 11:02:03;;;;;;;24.53;12.10;;;;;;;;;;4998564;28;20133;-78
2022/01/23 11:04:29;;;;;;;23.67;12.77;;;;;;;;;;5000060;28;20157;-80
2022/01/23 11:06:58;;;;;;;31.50;12.97;;;;;;;;;;4984751;28;20070;-79
2022/01/23 11:09:32;;;;;;;24.50;12.93;;;;;;;;;;5000962;28;20042;-80
2022/01/23 11:12:05;;;;;;;23.90;12.20;;;;;;;;;;4997895;28;20090;-80
2022/01/23 11:17:22;;;;;;;25.13;11.50;;;;;;;;;;4982207;28;20413;-78
2022/01/23 11:19:49;;;;;;;23.50;12.37;;;;;;;;;;4998879;28;20034;-79
2022/01/23 11:22:19;;;;;;;26.00;11.93;;;;;;;;;;4988013;28;20097;-77
2022/01/23 11:24:47;;;;;;;21.80;12.13;;;;;;;;;;5001968;28;20031;-80
2022/01/23 11:27:13;;;;;;;22.07;11.03;;;;;;;;;;4997683;28;20044;-79
2022/01/23 11:29:53;;;;;;;24.63;14.00;;;;;;;;;;5039690;28;20055;-78
2022/01/23 11:32:19;;;;;;;24.60;13.37;;;;;;;;;;5033777;28;20034;-79
2022/01/23 11:34:46;;;;;;;27.23;13.30;;;;;;;;;;5041942;28;20381;-78
2022/01/23 11:37:15;;;;;;;33.47;14.97;;;;;;;;;;5046616;28;20029;-78
2022/01/23 11:39:54;;;;;;;26.17;13.07;;;;;;;;;;5031173;28;20029;-79
2022/01/23 11:58:54;;;;;;;24.90;13.03;;;;;;;;;;5031057;28;20029;-79
2022/01/23 12:01:22;;;;;;;25.17;13.03;;;;;;;;;;5032276;28;20039;-80
2022/01/23 12:04:14;;;;;;;27.73;12.33;;;;;;;;;;5041099;28;20200;-77
2022/01/23 12:06:42;;;;;;;24.87;11.87;;;;;;;;;;5038313;28;20065;-77
2022/01/23 12:09:11;;;;;;;22.97;11.57;;;;;;;;;;5035018;28;20036;-77
2022/01/23 12:11:49;;;;;;;26.50;13.30;;;;;;;;;;5041698;28;20441;-78
2022/01/23 12:16:48;;;;;;;;;;;;;;;;;;5031202;28;20120;-79
2022/01/23 12:19:18;;;;;;;23.70;12.23;;;;;;;;;;5062311;28;19996;-79
2022/01/23 12:21:47;;;;;;;23.67;11.90;;;;;;;;;;5038266;28;20095;-77
2022/01/23 12:24:14;;;;;;;16.60;10.47;;;;;;;;;;5041442;28;20059;-80
2022/01/23 12:26:43;;;;;;;19.67;11.70;;;;;;;;;;5031765;28;20534;-76
2022/01/23 12:29:17;;;;;;;21.07;9.63;;;;;;;;;;5041961;28;20144;-76
2022/01/23 12:31:43;;;;;;;24.80;10.77;;;;;;;;;;5041367;28;20049;-79
2022/01/23 12:34:14;;;;;;;21.17;11.73;;;;;;;;;;5040122;28;20027;-78
2022/01/23 12:36:42;;;;;;;21.17;11.60;;;;;;;;;;5041437;28;20034;-80
2022/01/23 12:39:08;;;;;;;24.27;9.83;;;;;;;;;;5033821;28;20389;-81
2022/01/23 12:41:43;;;;;;;17.17;9.00;;;;;;;;;;5030936;28;20060;-81
2022/01/23 12:44:26;;;;;;;23.67;10.47;;;;;;;;;;5040227;28;20052;-79
2022/01/23 12:46:54;;;;;;;22.07;11.87;;;;;;;;;;5046494;28;21607;-79
2022/01/23 12:49:23;;;;;;;20.13;11.10;;;;;;;;;;5039169;28;20018;-76
2022/01/23 12:52:09;;;;;;;20.70;10.90;;;;;;;;;;5041017;28;20032;-77
2022/01/23 12:54:37;;;;;;;20.20;10.17;;;;;;;;;;5020672;28;20044;-79
2022/01/23 12:57:12;;;;;;;18.17;9.57;;;;;;;;;;5030867;28;20128;-76
2022/01/23 12:59:38;;;;;;;18.87;10.03;;;;;;;;;;5037769;28;20030;-76
2022/01/23 13:02:11;;;;;;;19.23;10.30;;;;;;;;;;5035586;28;20047;-75
2022/01/23 13:04:39;;;;;;;18.30;10.30;;;;;;;;;;5028510;28;20400;-77
2022/01/23 13:07:14;;;;;;;20.80;10.80;;;;;;;;;;5038939;28;20028;-77
2022/01/23 13:17:42;;;;;;;20.70;11.30;;;;;;;;;;5028451;28;20033;-78
2022/01/23 13:26:27;;;;;;;24.90;11.60;;;;;;;;;;5032198;28;20045;-78
2022/01/23 13:31:13;;;;;;;18.80;11.20;;;;;;;;;;5029348;28;20041;-78
2022/01/23 13:33:41;;;;;;;26.13;12.10;;;;;;;;;;5038394;28;20033;-78
2022/01/23 13:36:11;;;;;;;20.03;11.00;;;;;;;;;;5030008;28;21763;-79
2022/01/23 13:38:38;;;;;;;28.50;13.20;;;;;;;;;;5027150;28;20040;-77
2022/01/23 13:41:24;;;;;;;20.17;10.97;;;;;;;;;;5038415;28;20030;-79
2022/01/23 13:51:00;;;;;;;22.00;11.80;;;;;;;;;;5052786;28;20041;-78
2022/01/23 13:52:42;;;;;;;25.60;12.80;;;;;;;;;;5028671;28;20029;-78
2022/01/23 13:58:32;;;;;;;19.33;10.57;;;;;;;;;;5024894;28;20041;-77
2022/01/23 14:00:58;;;;;;;22.87;11.73;;;;;;;;;;5028379;28;20036;-78
2022/01/23 14:03:24;;;;;;;23.27;12.40;;;;;;;;;;5036332;28;20205;-80
2022/01/23 14:05:50;;;;;;;22.27;11.90;;;;;;;;;;5036610;28;20033;-77
2022/01/23 14:08:20;;;;;;;20.63;11.17;;;;;;;;;;5027091;28;20026;-77
2022/01/23 14:10:46;;;;;;;20.37;10.43;;;;;;;;;;5037246;28;20037;-79
2022/01/23 14:13:15;;;;;;;20.27;11.73;;;;;;;;;;5040799;28;20029;-79
2022/01/23 14:15:48;;;;;;;21.13;10.80;;;;;;;;;;5030508;28;20026;-78
2022/01/23 14:18:19;;;;;;;22.57;10.43;;;;;;;;;;5037198;28;20037;-78
2022/01/23 14:20:46;;;;;;;21.57;10.80;;;;;;;;;;5036637;28;20033;-80
2022/01/23 14:23:17;;;;;;;24.97;10.53;;;;;;;;;;5027850;28;20041;-80
2022/01/23 14:25:46;;;;;;;22.20;10.40;;;;;;;;;;5019760;28;20112;-79
2022/01/23 14:28:16;;;;;;;20.00;11.27;;;;;;;;;;5018816;28;20034;-82
2022/01/23 14:30:46;;;;;;;21.57;11.87;;;;;;;;;;5022906;28;20084;-78
2022/01/23 14:33:22;;;;;;;21.67;11.77;;;;;;;;;;5021336;28;20043;-76
2022/01/23 14:35:50;;;;;;;21.77;11.23;;;;;;;;;;5035380;28;20514;-78
2022/01/23 14:38:16;;;;;;;17.27;10.27;;;;;;;;;;5020373;28;20514;-78
2022/01/23 14:41:00;;;;;;;21.70;11.27;;;;;;;;;;5036001;28;20089;-77
2022/01/23 14:43:30;;;;;;;21.23;10.53;;;;;;;;;;5030204;28;20188;-78
2022/01/23 14:45:59;;;;;;;22.43;12.53;;;;;;;;;;5022898;28;20078;-79
2022/01/23 14:48:29;;;;;;;24.67;11.47;;;;;;;;;;5032604;28;20030;-77
2022/01/23 14:51:02;;;;;;;21.97;10.93;;;;;;;;;;5037155;28;20068;-78
2022/01/23 14:53:28;;;;;;;21.43;11.43;;;;;;;;;;5034802;28;20095;-80
2022/01/23 14:55:56;;;;;;;21.70;10.30;;;;;;;;;;5030572;28;20034;-78
2022/01/23 14:58:22;;;;;;;19.53;10.87;;;;;;;;;;5020113;28;20117;-80
2022/01/23 15:00:50;;;;;;;21.13;12.13;;;;;;;;;;5018991;28;20119;-79
2022/01/23 15:03:16;;;;;;;20.70;10.93;;;;;;;;;;5028691;28;20033;-77
2022/01/23 15:05:42;;;;;;;20.10;10.23;;;;;;;;;;5030563;28;20040;-78
2022/01/23 15:08:10;;;;;;;20.70;10.57;;;;;;;;;;5028611;28;20350;-79
2022/01/23 15:10:39;;;;;;;25.97;11.80;;;;;;;;;;5029263;28;20457;-80
2022/01/23 15:13:06;;;;;;;17.97;10.50;;;;;;;;;;5029930;28;20029;-80
2022/01/23 15:15:32;;;;;;;20.07;11.00;;;;;;;;;;5023229;28;20041;-79
2022/01/23 15:17:58;;;;;;;21.23;11.27;;;;;;;;;;5020235;28;20041;-77
2022/01/23 15:20:26;;;;;;;20.90;11.43;;;;;;;;;;5031416;28;20441;-82
2022/01/23 15:22:52;;;;;;;19.70;10.37;;;;;;;;;;5029594;28;20045;-77
2022/01/23 15:25:19;;;;;;;16.20;9.83;;;;;;;;;;5020238;28;20037;-80
2022/01/23 15:27:47;;;;;;;17.73;10.20;;;;;;;;;;5018339;28;20032;-79
2022/01/23 15:30:16;;;;;;;20.83;11.50;;;;;;;;;;5029586;28;20030;-78
2022/01/23 15:32:43;;;;;;;16.60;8.40;;;;;;;;;;5018745;28;20474;-78
2022/01/23 15:35:09;;;;;;;18.33;8.63;;;;;;;;;;5019126;28;20033;-80
2022/01/23 15:37:37;;;;;;;17.00;9.40;;;;;;;;;;5018603;28;20037;-77
2022/01/23 15:40:03;;;;;;;15.17;8.33;;;;;;;;;;5020645;28;20049;-79
2022/01/23 15:42:32;;;;;;;19.10;8.73;;;;;;;;;;5018185;28;20076;-75
2022/01/23 15:45:00;;;;;;;19.53;9.50;;;;;;;;;;5017738;28;20029;-80
2022/01/23 15:47:27;;;;;;;16.67;9.03;;;;;;;;;;5029742;28;20018;-77
2022/01/23 15:49:53;;;;;;;17.73;8.03;;;;;;;;;;5029333;28;20041;-79
2022/01/23 15:52:19;;;;;;;16.67;8.73;;;;;;;;;;5018611;28;20044;-78
2022/01/23 15:54:46;;;;;;;17.03;8.60;;;;;;;;;;5029203;28;20087;-76
2022/01/23 15:57:14;;;;;;;16.47;9.20;;;;;;;;;;5030513;28;20034;-79
2022/01/23 15:59:40;;;;;;;24.17;11.33;;;;;;;;;;5029139;28;20048;-80
2022/01/23 16:02:09;;;;;;;16.67;8.33;;;;;;;;;;5029920;28;20038;-78
2022/01/23 16:04:37;;;;;;;18.60;7.67;;;;;;;;;;5029252;28;20563;-80
2022/01/23 16:07:07;;;;;;;15.10;7.40;;;;;;;;;;5029589;28;20358;-78
2022/01/23 16:09:34;;;;;;;10.10;4.87;;;;;;;;;;5029719;28;20453;-79
2022/01/23 16:12:01;;;;;;;9.43;4.47;;;;;;;;;;5050589;28;20033;-78
2022/01/23 16:14:29;;;;;;;5.63;3.60;;;;;;;;;;5019054;28;20038;-78
2022/01/23 16:16:56;;;;;;;6.13;3.60;;;;;;;;;;5020517;28;20033;-78
2022/01/23 16:19:22;;;;;;;11.70;6.17;;;;;;;;;;5035697;28;20038;-77
2022/01/23 16:21:54;;;;;;;9.43;4.17;;;;;;;;;;5035252;28;20091;-80
2022/01/23 16:24:21;;;;;;;7.97;4.05;;;;;;;;;;5035726;28;20083;-83
2022/01/23 16:26:50;;;;;;;6.70;3.83;;;;;;;;;;5028012;28;20103;-81
2022/01/23 16:29:16;;;;;;;7.10;3.43;;;;;;;;;;5035321;28;20060;-84
2022/01/23 16:31:42;;;;;;;6.23;3.53;;;;;;;;;;5057402;28;20048;-78
2022/01/23 16:34:08;;;;;;;6.37;3.47;;;;;;;;;;5022951;28;20109;-81
2022/01/23 16:36:35;;;;;;;6.00;3.30;;;;;;;;;;5026660;28;20068;-78
2022/01/23 16:39:01;;;;;;;4.60;2.60;;;;;;;;;;5036549;28;20033;-79
2022/01/23 16:41:27;;;;;;;4.80;3.13;;;;;;;;;;5028524;28;20052;-81
2022/01/23 16:43:54;;;;;;;5.20;3.33;;;;;;;;;;5026352;28;20092;-80
2022/01/23 16:46:22;;;;;;;4.13;2.73;;;;;;;;;;5036962;28;20085;-79
2022/01/23 16:48:50;;;;;;;6.77;3.50;;;;;;;;;;5038694;28;20193;-80
2022/01/23 16:51:16;;;;;;;4.07;2.97;;;;;;;;;;5031910;28;20113;-80
2022/01/23 16:53:42;;;;;;;5.37;3.13;;;;;;;;;;5025095;28;20231;-79
2022/01/23 16:56:08;;;;;;;3.47;1.90;;;;;;;;;;5033528;28;20034;-77
2022/01/23 16:58:35;;;;;;;5.93;3.33;;;;;;;;;;5034222;28;20611;-79
2022/01/23 17:01:01;;;;;;;5.87;2.70;;;;;;;;;;5056138;28;20036;-79
2022/01/23 17:03:31;;;;;;;8.77;2.90;;;;;;;;;;5021373;28;20124;-80
2022/01/23 17:06:00;;;;;;;9.03;2.47;;;;;;;;;;5033687;28;20030;-80
2022/01/23 17:08:28;;;;;;;4.00;2.70;;;;;;;;;;5024852;28;20412;-79
2022/01/23 17:10:54;;;;;;;5.13;2.37;;;;;;;;;;5034636;28;20038;-78
2022/01/23 17:13:21;;;;;;;5.67;2.50;;;;;;;;;;5032923;28;20038;-79
2022/01/23 17:15:47;;;;;;;4.30;2.30;;;;;;;;;;5023746;28;20063;-79
2022/01/23 17:18:13;;;;;;;5.53;2.77;;;;;;;;;;5032163;28;20637;-78
2022/01/23 17:20:40;;;;;;;5.73;3.10;;;;;;;;;;5022968;28;20037;-79
2022/01/23 17:23:08;;;;;;;4.50;2.63;;;;;;;;;;5033017;28;20040;-78
2022/01/23 17:25:34;;;;;;;5.17;3.67;;;;;;;;;;5021899;28;20045;-80
2022/01/23 17:28:00;;;;;;;4.73;2.97;;;;;;;;;;5024861;28;20029;-76
2022/01/23 17:30:28;;;;;;;5.97;2.93;;;;;;;;;;5031714;28;20043;-79
2022/01/23 17:32:54;;;;;;;4.47;2.73;;;;;;;;;;5037603;28;21004;-80
2022/01/23 17:35:21;;;;;;;4.20;2.80;;;;;;;;;;5021169;28;20068;-80
2022/01/23 17:37:48;;;;;;;5.50;2.80;;;;;;;;;;5021158;28;20026;-81
2022/01/23 17:40:17;;;;;;;4.43;2.60;;;;;;;;;;5030137;28;20041;-79
2022/01/23 17:42:49;;;;;;;7.60;3.80;;;;;;;;;;5030917;28;20343;-78
2022/01/23 17:45:24;;;;;;;5.75;3.30;;;;;;;;;;5032988;28;20029;-79
2022/01/23 17:50:21;;;;;;;6.07;2.37;;;;;;;;;;5020558;28;20120;-79
2022/01/23 17:52:50;;;;;;;6.47;3.37;;;;;;;;;;5030866;28;20033;-81
2022/01/23 17:55:17;;;;;;;5.13;2.90;;;;;;;;;;5021559;28;20041;-80
2022/01/23 17:57:43;;;;;;;5.63;3.27;;;;;;;;;;5031445;28;20463;-77